Time;durP1;ratioP1;P1;durP2;ratioP2;P2;SDS_P1;SDS_P2;PMS_P1;PMS_P2;Temp;Humidity;BMP_temperature;BMP_pressure;BME280_temperature;BME280_humidity;BME280_pressure;Samples;Min_cycle;Max_cycle;Signal;HPM_P1;HPM_P2
2023/09/23 04:05:42;;;;;;;0.30;0.30;;;11.30;99.90;;;;;;5839050;22;20244;-60
2023/09/23 04:08:08;;;;;;;0.30;0.30;;;11.20;99.90;;;;;;5016207;28;20268;-62
2023/09/23 04:10:39;;;;;;;0.30;0.30;;;11.10;99.90;;;;;;5016779;28;20541;-61
2023/09/23 04:13:05;;;;;;;0.30;0.20;;;11.10;99.90;;;;;;5015368;28;20643;-60
2023/09/23 04:15:31;;;;;;;0.30;0.30;;;11.10;99.90;;;;;;5016181;28;20217;-62
2023/09/23 04:17:58;;;;;;;0.30;0.30;;;11.10;99.90;;;;;;5016467;28;20200;-61
2023/09/23 04:20:23;;;;;;;0.30;0.28;;;11.10;99.90;;;;;;5016233;28;20828;-61
2023/09/23 04:22:49;;;;;;;0.30;0.20;;;11.00;99.90;;;;;;5016482;28;20272;-61
2023/09/23 04:25:15;;;;;;;0.30;0.30;;;11.00;99.90;;;;;;5015460;28;20178;-60
2023/09/23 04:27:40;;;;;;;0.30;0.30;;;11.00;99.90;;;;;;5016162;28;20218;-62
2023/09/23 04:30:11;;;;;;;0.30;0.30;;;11.00;99.90;;;;;;5016421;28;20175;-61
2023/09/23 04:32:38;;;;;;;0.40;0.40;;;11.00;99.90;;;;;;5016205;28;20221;-62
2023/09/23 04:35:08;;;;;;;0.40;0.40;;;11.00;99.90;;;;;;5015154;28;20188;-61
2023/09/23 04:37:37;;;;;;;0.30;0.30;;;11.00;99.90;;;;;;5014047;28;20237;-62
2023/09/23 04:40:11;;;;;;;0.30;0.30;;;10.90;99.90;;;;;;5016119;28;20179;-61
2023/09/23 04:42:40;;;;;;;0.30;0.30;;;10.90;99.90;;;;;;5016118;28;20199;-61
2023/09/23 04:45:08;;;;;;;0.40;0.40;;;11.00;99.90;;;;;;5015634;28;20218;-61
2023/09/23 04:47:35;;;;;;;0.30;0.30;;;11.00;99.90;;;;;;5015732;28;20752;-62
2023/09/23 04:50:01;;;;;;;0.30;0.30;;;11.00;99.90;;;;;;5015754;28;20646;-61
2023/09/23 04:52:30;;;;;;;0.30;0.30;;;11.00;99.90;;;;;;5015754;28;20414;-62
2023/09/23 04:54:56;;;;;;;0.30;0.20;;;11.00;99.90;;;;;;5015376;28;20182;-61
2023/09/23 04:57:22;;;;;;;0.40;0.40;;;11.00;99.90;;;;;;5015329;28;20208;-62
2023/09/23 04:59:47;;;;;;;0.30;0.30;;;11.00;99.90;;;;;;5015565;28;20168;-60
2023/09/23 05:02:13;;;;;;;0.30;0.30;;;11.00;99.90;;;;;;5016001;28;20187;-62
2023/09/23 05:04:40;;;;;;;0.30;0.30;;;11.10;99.90;;;;;;5015759;28;20262;-61
2023/09/23 05:07:05;;;;;;;0.30;0.30;;;11.00;99.90;;;;;;5015479;28;20283;-61
2023/09/23 05:09:31;;;;;;;0.30;0.20;;;11.10;99.90;;;;;;5015837;28;20581;-61
2023/09/23 05:11:57;;;;;;;0.30;0.30;;;11.10;99.90;;;;;;5015626;28;20970;-62
2023/09/23 05:14:25;;;;;;;0.30;0.30;;;11.10;99.90;;;;;;5015021;28;20709;-61
2023/09/23 05:16:51;;;;;;;0.30;0.30;;;11.10;99.90;;;;;;5014996;28;20218;-61
2023/09/23 05:19:19;;;;;;;0.30;0.30;;;11.10;99.90;;;;;;5015408;28;20168;-62
2023/09/23 05:21:49;;;;;;;0.30;0.30;;;11.10;99.90;;;;;;5014766;28;20179;-61
2023/09/23 05:24:16;;;;;;;0.30;0.30;;;11.10;99.90;;;;;;5014751;28;20221;-63
2023/09/23 05:26:43;;;;;;;0.30;0.30;;;11.20;99.90;;;;;;5014881;28;20561;-62
2023/09/23 05:29:09;;;;;;;0.30;0.30;;;11.20;99.90;;;;;;5014880;28;20414;-61
2023/09/23 05:31:36;;;;;;;0.30;0.20;;;11.20;99.90;;;;;;5014342;28;20180;-60
2023/09/23 05:34:03;;;;;;;0.30;0.30;;;11.30;99.90;;;;;;5014235;28;20180;-61
2023/09/23 05:36:29;;;;;;;0.30;0.20;;;11.40;99.90;;;;;;5013145;28;20459;-61
2023/09/23 05:38:55;;;;;;;0.30;0.30;;;11.40;99.90;;;;;;5012265;28;20179;-62
2023/09/23 05:41:22;;;;;;;0.30;0.20;;;11.50;99.90;;;;;;5014993;28;20210;-62
2023/09/23 05:43:49;;;;;;;0.30;0.30;;;11.60;99.90;;;;;;5014658;28;20546;-62
2023/09/23 05:46:15;;;;;;;0.30;0.30;;;11.70;99.90;;;;;;5014862;28;20277;-61
2023/09/23 05:48:40;;;;;;;0.30;0.30;;;11.90;99.90;;;;;;5014656;28;20443;-62
2023/09/23 05:51:06;;;;;;;0.40;0.40;;;12.00;99.90;;;;;;5014669;28;20172;-63
2023/09/23 05:53:33;;;;;;;0.30;0.30;;;12.10;99.90;;;;;;5014605;28;20165;-60
2023/09/23 05:55:59;;;;;;;0.30;0.30;;;12.20;99.90;;;;;;5014060;28;20453;-65
2023/09/23 05:58:25;;;;;;;0.30;0.30;;;12.30;99.90;;;;;;5014700;28;20423;-61
2023/09/23 06:00:51;;;;;;;0.30;0.30;;;12.40;99.90;;;;;;5014532;28;20476;-65
2023/09/23 06:03:17;;;;;;;0.30;0.30;;;12.40;99.90;;;;;;5013224;28;20646;-62
2023/09/23 06:05:44;;;;;;;0.40;0.40;;;12.50;99.90;;;;;;5014014;28;20769;-63
2023/09/23 06:08:10;;;;;;;0.30;0.20;;;12.50;99.90;;;;;;5014222;28;20471;-63
2023/09/23 06:10:36;;;;;;;0.30;0.20;;;12.60;99.90;;;;;;5014268;28;20472;-65
2023/09/23 06:13:03;;;;;;;0.30;0.30;;;12.70;99.90;;;;;;5014245;28;20420;-62
2023/09/23 06:15:28;;;;;;;0.30;0.30;;;12.80;99.90;;;;;;5013858;28;20972;-61
2023/09/23 06:17:54;;;;;;;0.30;0.30;;;12.90;99.90;;;;;;5014158;28;20465;-61
2023/09/23 06:20:20;;;;;;;0.30;0.30;;;12.90;99.90;;;;;;5014170;28;20181;-61
2023/09/23 06:22:46;;;;;;;0.33;0.33;;;13.00;99.90;;;;;;5014156;28;20563;-62
2023/09/23 06:25:12;;;;;;;0.30;0.30;;;13.10;99.90;;;;;;5013701;28;20582;-61
2023/09/23 06:27:37;;;;;;;0.30;0.30;;;13.10;99.90;;;;;;5013889;28;20429;-60
2023/09/23 06:30:05;;;;;;;0.30;0.30;;;13.20;99.90;;;;;;5014179;28;20174;-61
2023/09/23 06:32:32;;;;;;;0.30;0.20;;;13.30;99.90;;;;;;5014198;28;20584;-60
2023/09/23 06:34:57;;;;;;;0.30;0.30;;;13.40;99.90;;;;;;5013473;28;20428;-61
2023/09/23 06:37:23;;;;;;;0.30;0.30;;;13.40;99.90;;;;;;5013762;28;20446;-62
2023/09/23 06:39:49;;;;;;;0.30;0.27;;;13.50;99.90;;;;;;5013881;28;20774;-60
2023/09/23 06:42:15;;;;;;;0.30;0.20;;;13.60;99.90;;;;;;5014012;28;20260;-61
2023/09/23 06:44:42;;;;;;;0.30;0.30;;;13.70;99.90;;;;;;5013541;28;20436;-61
2023/09/23 06:47:08;;;;;;;0.30;0.20;;;13.80;99.90;;;;;;5013491;28;20426;-60
2023/09/23 06:49:35;;;;;;;0.30;0.20;;;14.00;99.90;;;;;;5013487;28;20406;-62
2023/09/23 06:52:00;;;;;;;0.30;0.30;;;14.10;99.90;;;;;;5013616;28;20768;-62
2023/09/23 06:54:26;;;;;;;0.40;0.40;;;14.20;99.90;;;;;;5013297;28;20476;-62
2023/09/23 06:56:55;;;;;;;0.30;0.30;;;14.40;99.90;;;;;;5013220;28;20264;-61
2023/09/23 06:59:22;;;;;;;0.30;0.30;;;14.50;99.90;;;;;;5013555;28;20289;-60
2023/09/23 07:01:48;;;;;;;0.30;0.20;;;14.60;99.90;;;;;;5013417;28;20485;-60
2023/09/23 07:04:14;;;;;;;0.30;0.30;;;14.80;99.90;;;;;;5013176;28;20199;-64
2023/09/23 07:06:39;;;;;;;0.30;0.30;;;15.00;99.90;;;;;;5013265;28;20482;-61
2023/09/23 07:09:05;;;;;;;0.30;0.20;;;15.30;99.90;;;;;;5013134;28;20677;-62
2023/09/23 07:11:31;;;;;;;0.40;0.30;;;15.60;99.90;;;;;;5013543;28;20177;-60
2023/09/23 07:13:58;;;;;;;0.30;0.30;;;15.90;99.90;;;;;;5013424;28;21009;-65
2023/09/23 07:16:26;;;;;;;0.30;0.30;;;16.10;99.90;;;;;;5013186;28;20194;-60
2023/09/23 07:18:52;;;;;;;0.30;0.30;;;16.30;99.90;;;;;;5013653;28;20430;-63
2023/09/23 07:21:17;;;;;;;0.30;0.30;;;16.50;99.90;;;;;;5013524;28;20410;-60
2023/09/23 07:23:43;;;;;;;0.30;0.20;;;16.90;99.90;;;;;;5013021;28;20468;-61
2023/09/23 07:26:09;;;;;;;0.30;0.30;;;17.10;99.90;;;;;;5013294;28;20278;-60
2023/09/23 07:28:34;;;;;;;0.30;0.30;;;17.40;99.90;;;;;;5012028;28;20270;-63
2023/09/23 07:31:00;;;;;;;0.30;0.30;;;17.60;99.90;;;;;;5013452;28;20554;-62
2023/09/23 07:33:27;;;;;;;0.30;0.30;;;17.70;99.90;;;;;;5013432;28;20610;-61
2023/09/23 07:35:53;;;;;;;0.30;0.30;;;17.80;99.90;;;;;;5011932;28;20446;-65
2023/09/23 07:38:19;;;;;;;0.30;0.20;;;18.00;99.90;;;;;;5012851;28;20457;-61
2023/09/23 07:40:44;;;;;;;0.30;0.20;;;18.30;99.90;;;;;;5013107;28;20417;-64
2023/09/23 07:43:10;;;;;;;0.30;0.23;;;18.70;99.90;;;;;;5013050;28;20180;-67
2023/09/23 07:45:36;;;;;;;0.30;0.20;;;19.10;99.90;;;;;;5012723;28;20171;-63
2023/09/23 07:48:02;;;;;;;1.73;0.50;;;19.50;99.90;;;;;;5013078;28;20578;-63
2023/09/23 07:50:28;;;;;;;0.30;0.20;;;20.00;99.90;;;;;;5013024;28;20180;-64
2023/09/23 07:52:53;;;;;;;0.30;0.30;;;20.70;99.90;;;;;;5012961;28;20410;-64
2023/09/23 07:55:19;;;;;;;0.30;0.30;;;21.50;99.90;;;;;;5012570;28;20447;-65
2023/09/23 07:57:44;;;;;;;0.30;0.27;;;22.20;98.70;;;;;;5013150;28;20214;-63
2023/09/23 08:00:11;;;;;;;0.30;0.20;;;23.10;97.90;;;;;;5014170;28;20174;-64
2023/09/23 08:02:37;;;;;;;0.30;0.20;;;23.90;95.80;;;;;;5016614;28;20199;-64
2023/09/23 08:05:03;;;;;;;0.30;0.30;;;24.60;93.40;;;;;;5016242;28;20409;-63
2023/09/23 08:07:30;;;;;;;0.30;0.23;;;25.10;92.60;;;;;;5014726;28;20937;-65
2023/09/23 08:09:57;;;;;;;0.30;0.30;;;25.60;91.40;;;;;;5016308;28;20400;-67
2023/09/23 08:12:23;;;;;;;0.30;0.30;;;25.90;90.30;;;;;;5016397;28;20422;-64
2023/09/23 08:14:48;;;;;;;0.80;0.50;;;26.00;87.00;;;;;;5015986;28;20395;-62
2023/09/23 08:17:17;;;;;;;0.77;0.77;;;26.10;86.40;;;;;;5016326;28;20280;-65
2023/09/23 08:19:44;;;;;;;0.30;0.30;;;26.10;85.90;;;;;;5015976;28;20182;-65
2023/09/23 08:22:09;;;;;;;0.57;0.57;;;26.30;85.10;;;;;;5016071;28;20388;-64
2023/09/23 08:24:35;;;;;;;0.30;0.30;;;26.60;86.40;;;;;;5013807;28;20396;-65
2023/09/23 08:27:05;;;;;;;0.30;0.30;;;27.10;86.70;;;;;;5014593;28;20198;-62
2023/09/23 08:29:30;;;;;;;0.70;0.60;;;27.60;83.70;;;;;;5015974;28;20526;-63
2023/09/23 08:31:56;;;;;;;0.30;0.20;;;28.10;80.80;;;;;;5016003;28;20396;-65
2023/09/23 08:34:24;;;;;;;0.50;0.30;;;28.40;79.20;;;;;;5013724;28;20280;-63
2023/09/23 08:36:50;;;;;;;0.30;0.30;;;28.60;79.00;;;;;;5014354;28;20325;-63
2023/09/23 08:39:16;;;;;;;0.30;0.30;;;28.90;79.10;;;;;;5014241;28;20532;-65
2023/09/23 08:41:47;;;;;;;0.30;0.30;;;29.30;78.20;;;;;;5014228;28;20183;-63
2023/09/23 08:44:16;;;;;;;0.30;0.20;;;29.60;72.40;;;;;;5013883;28;20429;-63
2023/09/23 08:46:42;;;;;;;0.30;0.30;;;29.50;72.00;;;;;;5014198;28;21185;-62
2023/09/23 08:49:09;;;;;;;0.30;0.30;;;29.50;72.20;;;;;;5015454;28;20414;-65
2023/09/23 08:51:35;;;;;;;0.30;0.30;;;29.60;72.00;;;;;;5015757;28;20429;-63
2023/09/23 08:54:02;;;;;;;0.30;0.30;;;29.90;71.10;;;;;;5015314;28;20409;-65
2023/09/23 08:56:28;;;;;;;0.40;0.40;;;30.10;70.20;;;;;;5015408;28;20491;-63
2023/09/23 08:58:54;;;;;;;0.40;0.37;;;30.20;69.40;;;;;;5014553;28;20497;-63
2023/09/23 09:01:19;;;;;;;0.30;0.30;;;30.10;68.00;;;;;;5015409;28;20175;-63
2023/09/23 09:03:47;;;;;;;0.30;0.30;;;30.10;67.10;;;;;;5015071;28;20203;-64
2023/09/23 09:06:19;;;;;;;0.30;0.30;;;29.70;69.50;;;;;;5015403;28;20197;-65
2023/09/23 09:08:45;;;;;;;0.30;0.30;;;29.70;70.80;;;;;;5015535;28;20437;-65
2023/09/23 09:11:11;;;;;;;0.30;0.30;;;29.60;67.20;;;;;;5014872;28;20987;-65
2023/09/23 09:13:37;;;;;;;0.30;0.30;;;29.60;66.90;;;;;;5015279;28;20418;-65
2023/09/23 09:16:06;;;;;;;0.30;0.30;;;29.50;66.20;;;;;;5015230;28;20520;-64
2023/09/23 09:18:32;;;;;;;0.30;0.30;;;29.20;68.30;;;;;;5015355;28;20237;-65
2023/09/23 09:20:58;;;;;;;0.30;0.30;;;29.40;69.50;;;;;;5014864;28;20429;-65
2023/09/23 09:23:31;;;;;;;0.50;0.30;;;29.70;69.20;;;;;;5015270;28;20410;-63
2023/09/23 09:25:56;;;;;;;0.30;0.30;;;29.80;66.40;;;;;;5014802;28;20282;-63
2023/09/23 09:28:23;;;;;;;0.40;0.30;;;29.70;66.50;;;;;;5015073;28;20458;-66
2023/09/23 09:30:57;;;;;;;0.30;0.20;;;29.70;67.80;;;;;;5014621;28;20194;-64
2023/09/23 09:33:27;;;;;;;0.30;0.30;;;29.90;65.60;;;;;;5015189;28;20792;-62
2023/09/23 09:35:55;;;;;;;0.30;0.30;;;29.90;66.70;;;;;;5014464;28;20877;-64
2023/09/23 09:38:25;;;;;;;0.40;0.40;;;30.10;67.10;;;;;;5014741;28;20496;-63
2023/09/23 09:40:57;;;;;;;0.30;0.30;;;30.40;63.70;;;;;;5014563;28;20765;-64
2023/09/23 09:43:25;;;;;;;0.30;0.30;;;30.70;64.10;;;;;;5014856;28;20884;-64
2023/09/23 09:45:51;;;;;;;0.30;0.30;;;30.70;64.40;;;;;;5014269;28;20919;-64
2023/09/23 09:48:20;;;;;;;0.30;0.30;;;30.70;64.30;;;;;;5014302;28;20934;-62
2023/09/23 09:50:46;;;;;;;0.30;0.30;;;30.70;62.50;;;;;;5014879;28;20414;-64
2023/09/23 09:53:13;;;;;;;0.30;0.30;;;30.60;63.10;;;;;;5014777;28;20399;-61
2023/09/23 09:55:39;;;;;;;0.30;0.30;;;30.40;62.80;;;;;;5014102;28;20440;-64
2023/09/23 09:58:05;;;;;;;0.30;0.30;;;30.30;64.70;;;;;;5014191;28;20461;-62
2023/09/23 10:00:42;;;;;;;0.30;0.30;;;30.20;63.90;;;;;;5014078;28;20480;-64
2023/09/23 10:03:11;;;;;;;0.40;0.40;;;30.00;62.40;;;;;;5014511;28;20190;-64
2023/09/23 10:05:46;;;;;;;0.30;0.30;;;29.50;61.60;;;;;;5013868;28;20414;-63
2023/09/23 10:08:15;;;;;;;0.30;0.30;;;29.00;64.20;;;;;;5014084;28;20505;-61
2023/09/23 10:10:49;;;;;;;0.43;0.43;;;28.40;62.60;;;;;;5014166;28;20429;-64
2023/09/23 10:13:19;;;;;;;0.30;0.20;;;27.80;65.60;;;;;;5013871;28;20393;-62
2023/09/23 10:15:45;;;;;;;0.30;0.30;;;27.20;65.40;;;;;;5013650;28;20407;-64
2023/09/23 10:18:21;;;;;;;0.40;0.30;;;27.10;68.30;;;;;;5014137;28;20428;-61
2023/09/23 10:20:50;;;;;;;0.30;0.20;;;27.10;70.70;;;;;;5014068;28;20392;-63
2023/09/23 10:23:18;;;;;;;0.30;0.30;;;27.10;67.40;;;;;;5013725;28;20418;-61
2023/09/23 10:25:44;;;;;;;0.30;0.30;;;27.10;66.00;;;;;;5013763;28;20431;-62
2023/09/23 10:28:28;;;;;;;0.50;0.50;;;27.30;68.00;;;;;;5014284;28;20381;-63
2023/09/23 10:31:00;;;;;;;0.40;0.40;;;27.80;66.00;;;;;;4994318;28;20416;-63
2023/09/23 10:33:27;;;;;;;0.43;0.43;;;28.30;67.20;;;;;;4994610;28;20418;-61
2023/09/23 10:35:58;;;;;;;0.30;0.20;;;28.30;64.80;;;;;;4993792;28;20421;-64
2023/09/23 10:38:31;;;;;;;0.30;0.30;;;27.90;66.50;;;;;;5009356;28;20470;-62
2023/09/23 10:40:57;;;;;;;0.30;0.30;;;27.20;66.10;;;;;;5009509;28;20421;-63
2023/09/23 10:43:23;;;;;;;0.30;0.30;;;26.30;68.10;;;;;;4994198;28;20403;-61
2023/09/23 10:45:53;;;;;;;0.30;0.20;;;25.70;70.80;;;;;;4993591;28;20401;-63
2023/09/23 10:48:19;;;;;;;0.40;0.40;;;25.10;72.70;;;;;;4994288;28;20411;-61
2023/09/23 10:50:45;;;;;;;0.30;0.30;;;25.20;73.50;;;;;;5012619;28;20419;-62
2023/09/23 10:53:12;;;;;;;0.30;0.20;;;25.50;71.60;;;;;;5013803;28;20385;-63
2023/09/23 10:55:41;;;;;;;0.30;0.20;;;25.70;71.90;;;;;;5013151;28;20766;-62
2023/09/23 10:58:08;;;;;;;0.30;0.20;;;26.00;71.10;;;;;;5013612;28;20457;-64
2023/09/23 11:00:36;;;;;;;0.30;0.30;;;26.30;70.00;;;;;;5013287;28;20820;-64
2023/09/23 11:03:12;;;;;;;0.30;0.30;;;26.30;70.30;;;;;;5013640;28;20834;-62
2023/09/23 11:05:38;;;;;;;0.40;0.30;;;25.80;69.00;;;;;;5013193;28;20534;-63
2023/09/23 11:08:15;;;;;;;0.30;0.30;;;25.10;69.70;;;;;;5013636;28;20458;-61
2023/09/23 11:10:42;;;;;;;0.30;0.30;;;24.50;72.30;;;;;;5012915;28;20915;-64
2023/09/23 11:13:10;;;;;;;0.30;0.20;;;23.70;73.60;;;;;;5013404;28;20399;-64
2023/09/23 11:15:38;;;;;;;0.30;0.20;;;23.10;75.00;;;;;;5013168;28;20391;-63
2023/09/23 11:18:09;;;;;;;0.30;0.30;;;22.50;76.50;;;;;;5013552;28;20472;-61
2023/09/23 11:20:38;;;;;;;0.30;0.20;;;22.00;78.60;;;;;;5012938;28;20384;-66
2023/09/23 11:23:05;;;;;;;0.30;0.20;;;21.80;80.00;;;;;;5013259;28;20928;-64
2023/09/23 11:25:42;;;;;;;0.30;0.20;;;21.60;80.00;;;;;;5012914;28;20912;-72
2023/09/23 11:28:15;;;;;;;0.30;0.20;;;21.40;81.00;;;;;;5012647;28;20436;-67
2023/09/23 11:30:41;;;;;;;0.80;0.80;;;21.20;80.10;;;;;;5013366;28;20382;-70
2023/09/23 11:33:07;;;;;;;0.30;0.30;;;21.10;82.80;;;;;;5013280;28;20414;-67
2023/09/23 11:35:33;;;;;;;0.63;0.50;;;20.70;82.20;;;;;;5015668;28;20186;-65
2023/09/23 11:37:58;;;;;;;0.30;0.30;;;20.50;82.30;;;;;;5016523;28;20231;-67
2023/09/23 11:40:24;;;;;;;0.30;0.20;;;20.20;83.20;;;;;;5017096;28;20443;-68
2023/09/23 11:42:50;;;;;;;0.30;0.20;;;20.00;85.90;;;;;;5016928;28;20163;-71
2023/09/23 11:45:16;;;;;;;0.30;0.20;;;19.90;86.80;;;;;;5016149;28;20214;-69
2023/09/23 11:47:41;;;;;;;0.30;0.20;;;19.90;87.80;;;;;;5015160;28;20559;-69
2023/09/23 11:50:07;;;;;;;0.30;0.30;;;19.90;86.70;;;;;;5016571;28;20201;-67
2023/09/23 11:52:33;;;;;;;0.30;0.30;;;19.90;83.40;;;;;;5016355;28;20241;-66
2023/09/23 11:54:59;;;;;;;0.30;0.30;;;19.90;85.10;;;;;;5015278;28;20401;-70
2023/09/23 11:57:26;;;;;;;0.30;0.20;;;20.10;87.90;;;;;;5015373;28;20466;-71
2023/09/23 11:59:52;;;;;;;0.30;0.30;;;20.20;85.20;;;;;;5015883;28;20174;-72
2023/09/23 12:02:19;;;;;;;0.30;0.30;;;20.30;86.00;;;;;;5016183;28;20453;-67
2023/09/23 12:04:46;;;;;;;0.30;0.30;;;20.50;84.60;;;;;;5016007;28;20432;-66
2023/09/23 12:07:14;;;;;;;0.30;0.20;;;20.60;83.20;;;;;;5016103;28;20948;-68
2023/09/23 12:09:40;;;;;;;0.30;0.30;;;20.70;82.50;;;;;;5016297;28;20464;-69
2023/09/23 12:12:06;;;;;;;0.30;0.30;;;20.70;85.10;;;;;;5015139;28;20422;-69
2023/09/23 12:14:31;;;;;;;0.30;0.20;;;20.50;83.80;;;;;;5015997;28;20406;-67
2023/09/23 12:16:57;;;;;;;0.30;0.20;;;20.30;83.90;;;;;;5015270;28;20827;-66
2023/09/23 12:19:23;;;;;;;0.30;0.20;;;20.20;87.30;;;;;;5015583;28;20182;-64
2023/09/23 12:21:49;;;;;;;0.30;0.20;;;20.10;87.00;;;;;;5015993;28;20167;-63
2023/09/23 12:24:15;;;;;;;0.30;0.30;;;20.10;87.10;;;;;;5014872;28;20190;-63
2023/09/23 12:26:41;;;;;;;0.30;0.30;;;20.10;85.30;;;;;;5015478;28;20421;-64
2023/09/23 12:29:06;;;;;;;1.00;0.93;;;20.00;85.60;;;;;;5015387;28;20418;-63
2023/09/23 12:31:32;;;;;;;0.30;0.20;;;19.90;87.80;;;;;;5015734;28;20171;-62
2023/09/23 12:33:57;;;;;;;0.30;0.20;;;19.80;87.40;;;;;;5015875;28;20171;-63
2023/09/23 12:36:24;;;;;;;0.30;0.30;;;19.80;88.70;;;;;;5015489;28;20253;-63
2023/09/23 12:38:49;;;;;;;0.30;0.20;;;19.70;84.90;;;;;;5016110;28;20206;-62
2023/09/23 12:41:16;;;;;;;0.30;0.20;;;19.60;86.90;;;;;;5014672;28;20440;-64
2023/09/23 12:43:41;;;;;;;0.30;0.20;;;19.50;86.00;;;;;;5015005;28;20175;-65
2023/09/23 12:46:09;;;;;;;0.30;0.20;;;19.40;85.80;;;;;;5014334;28;20976;-65
2023/09/23 12:48:34;;;;;;;0.30;0.30;;;19.40;86.40;;;;;;5015460;28;20175;-61
2023/09/23 12:51:00;;;;;;;0.30;0.20;;;19.40;85.90;;;;;;5016073;28;20416;-63
2023/09/23 12:53:25;;;;;;;0.30;0.30;;;19.40;86.40;;;;;;5015752;28;20181;-66
2023/09/23 12:55:51;;;;;;;0.30;0.30;;;19.40;86.70;;;;;;5015046;28;20191;-63
2023/09/23 12:58:16;;;;;;;0.30;0.30;;;19.30;85.80;;;;;;5015114;28;20207;-65
2023/09/23 13:00:42;;;;;;;0.30;0.30;;;19.20;85.80;;;;;;5015533;28;20225;-63
2023/09/23 13:03:11;;;;;;;0.30;0.30;;;19.20;86.50;;;;;;5015757;28;20644;-64
2023/09/23 13:05:37;;;;;;;0.30;0.27;;;19.20;88.30;;;;;;5014993;28;20261;-67
2023/09/23 13:08:05;;;;;;;0.30;0.20;;;19.10;88.70;;;;;;5015007;28;20552;-63
2023/09/23 13:10:34;;;;;;;0.30;0.20;;;19.00;88.50;;;;;;5015362;28;20179;-65
2023/09/23 13:13:00;;;;;;;0.30;0.30;;;19.00;89.40;;;;;;5015431;28;20523;-62
2023/09/23 13:15:27;;;;;;;0.30;0.20;;;19.10;89.70;;;;;;5014425;28;20461;-64
2023/09/23 13:17:52;;;;;;;0.30;0.30;;;19.10;90.80;;;;;;5014900;28;20202;-62
2023/09/23 13:20:19;;;;;;;0.30;0.30;;;19.10;90.70;;;;;;5015022;28;20933;-64
2023/09/23 13:22:44;;;;;;;0.30;0.20;;;19.20;91.40;;;;;;5015123;28;20422;-65
2023/09/23 13:25:11;;;;;;;1.27;0.50;;;19.20;91.00;;;;;;5014171;28;20424;-66
2023/09/23 13:27:36;;;;;;;0.30;0.30;;;19.10;90.50;;;;;;5013794;28;20756;-68
2023/09/23 13:30:02;;;;;;;0.30;0.23;;;19.30;91.20;;;;;;5014858;28;20504;-62
2023/09/23 13:32:28;;;;;;;0.30;0.30;;;19.50;91.50;;;;;;5014725;28;20189;-65
2023/09/23 13:34:54;;;;;;;0.30;0.30;;;19.70;90.00;;;;;;5014223;28;20484;-64
2023/09/23 13:37:19;;;;;;;0.30;0.30;;;20.00;88.70;;;;;;5014762;28;20453;-66
2023/09/23 13:39:45;;;;;;;0.30;0.20;;;20.10;87.40;;;;;;5014568;28;20257;-61
2023/09/23 13:42:10;;;;;;;0.30;0.20;;;20.20;86.60;;;;;;5015057;28;20175;-66
2023/09/23 13:44:36;;;;;;;0.30;0.20;;;20.30;89.00;;;;;;5013962;28;20172;-65
2023/09/23 13:47:02;;;;;;;0.30;0.30;;;20.40;87.60;;;;;;5014459;28;20199;-64
2023/09/23 13:49:27;;;;;;;0.30;0.20;;;20.40;86.90;;;;;;5014507;28;20229;-65
2023/09/23 13:51:53;;;;;;;0.30;0.20;;;20.40;86.60;;;;;;5014699;28;20179;-63
2023/09/23 13:54:19;;;;;;;0.30;0.27;;;20.40;84.90;;;;;;5014280;28;20286;-71
2023/09/23 13:56:44;;;;;;;0.30;0.30;;;20.50;85.60;;;;;;5013887;28;20449;-66
2023/09/23 13:59:10;;;;;;;0.30;0.20;;;20.70;84.90;;;;;;5013958;28;20244;-68
2023/09/23 14:01:36;;;;;;;0.63;0.63;;;20.70;84.00;;;;;;5014082;28;20691;-65
2023/09/23 14:04:02;;;;;;;0.30;0.20;;;20.70;84.10;;;;;;5013943;28;20418;-69
2023/09/23 14:06:27;;;;;;;0.30;0.20;;;20.60;86.10;;;;;;5013613;28;20328;-68
2023/09/23 14:08:53;;;;;;;0.30;0.20;;;20.40;84.50;;;;;;5011564;28;20252;-66
2023/09/23 14:11:19;;;;;;;0.30;0.20;;;20.10;84.20;;;;;;5013606;28;20182;-66
2023/09/23 14:13:46;;;;;;;0.30;0.30;;;20.00;85.60;;;;;;5011791;28;20182;-65
2023/09/23 14:16:12;;;;;;;0.30;0.20;;;19.90;87.60;;;;;;5012252;28;20535;-65
2023/09/23 14:18:38;;;;;;;0.30;0.20;;;19.80;88.70;;;;;;5013144;28;20493;-67
2023/09/23 14:21:03;;;;;;;0.30;0.20;;;19.70;88.80;;;;;;5013083;28;20171;-66
2023/09/23 14:23:30;;;;;;;0.30;0.30;;;19.70;87.90;;;;;;5011906;28;20245;-65
2023/09/23 14:25:56;;;;;;;0.30;0.30;;;19.70;88.10;;;;;;5011445;28;20222;-65
2023/09/23 14:28:21;;;;;;;0.30;0.30;;;19.60;88.10;;;;;;5012331;28;20801;-65
2023/09/23 14:30:47;;;;;;;0.30;0.30;;;19.50;88.30;;;;;;5011619;28;20197;-65
2023/09/23 14:33:12;;;;;;;0.30;0.30;;;19.50;89.30;;;;;;5011946;28;20181;-66
2023/09/23 14:35:38;;;;;;;0.30;0.30;;;19.30;89.20;;;;;;5011600;28;20203;-67
2023/09/23 14:38:04;;;;;;;0.30;0.20;;;19.20;90.10;;;;;;5013911;28;20201;-65
2023/09/23 14:40:29;;;;;;;0.30;0.30;;;19.10;90.60;;;;;;5013963;28;20240;-66
2023/09/23 14:42:55;;;;;;;0.30;0.30;;;19.10;90.60;;;;;;5013485;28;20194;-67
2023/09/23 14:45:22;;;;;;;0.30;0.30;;;19.00;90.60;;;;;;5012797;28;20191;-67
2023/09/23 14:47:48;;;;;;;0.30;0.30;;;19.00;90.60;;;;;;5013349;28;20594;-66
2023/09/23 14:50:14;;;;;;;0.40;0.40;;;19.00;90.50;;;;;;5013446;28;20418;-64
2023/09/23 14:52:40;;;;;;;0.30;0.20;;;19.00;90.20;;;;;;5013407;28;20417;-65
2023/09/23 14:55:06;;;;;;;0.30;0.20;;;19.10;91.10;;;;;;5012448;28;20201;-65
2023/09/23 14:57:32;;;;;;;0.30;0.30;;;19.20;90.70;;;;;;5011882;28;20450;-66
2023/09/23 14:59:57;;;;;;;0.30;0.30;;;19.20;91.00;;;;;;5028744;28;20428;-67
2023/09/23 15:02:23;;;;;;;0.30;0.30;;;19.30;91.40;;;;;;5013236;28;20170;-67
2023/09/23 15:04:49;;;;;;;0.30;0.30;;;19.20;91.30;;;;;;5012872;28;20179;-66
2023/09/23 15:07:16;;;;;;;0.30;0.30;;;19.20;90.80;;;;;;5013210;28;20432;-66
2023/09/23 15:09:42;;;;;;;0.30;0.30;;;19.20;91.00;;;;;;5013165;28;20893;-66
2023/09/23 15:12:08;;;;;;;0.30;0.20;;;19.10;90.70;;;;;;5013545;28;20413;-66
2023/09/23 15:14:35;;;;;;;0.30;0.30;;;19.20;90.70;;;;;;5012604;28;20183;-67
2023/09/23 15:17:01;;;;;;;0.30;0.20;;;19.10;90.90;;;;;;5013156;28;20458;-66
2023/09/23 15:19:26;;;;;;;0.30;0.20;;;19.00;91.00;;;;;;5013621;28;20447;-67
2023/09/23 15:21:54;;;;;;;0.30;0.30;;;19.00;91.50;;;;;;5013331;28;20167;-66
2023/09/23 15:24:19;;;;;;;0.30;0.20;;;18.90;92.00;;;;;;5012919;28;20173;-67
2023/09/23 15:26:47;;;;;;;0.30;0.20;;;18.90;92.10;;;;;;5011894;28;20492;-65
2023/09/23 15:29:12;;;;;;;0.30;0.30;;;18.90;92.30;;;;;;5012387;28;20204;-65
2023/09/23 15:31:39;;;;;;;0.30;0.30;;;18.80;92.50;;;;;;5012897;28;20449;-67
2023/09/23 15:34:04;;;;;;;0.30;0.30;;;18.80;92.60;;;;;;5012307;28;20189;-66
2023/09/23 15:36:30;;;;;;;0.30;0.20;;;18.80;92.80;;;;;;5013137;28;20508;-66
2023/09/23 15:38:56;;;;;;;0.30;0.20;;;18.70;93.70;;;;;;5012630;28;20198;-66
2023/09/23 15:41:22;;;;;;;0.30;0.20;;;18.70;93.60;;;;;;5012849;28;20630;-65
2023/09/23 15:43:48;;;;;;;0.30;0.20;;;18.70;93.10;;;;;;5027307;28;20179;-66
2023/09/23 15:46:13;;;;;;;0.30;0.20;;;18.60;93.10;;;;;;5012269;28;20441;-66
2023/09/23 15:48:39;;;;;;;0.30;0.20;;;18.60;92.50;;;;;;5013219;28;20632;-66
2023/09/23 15:51:09;;;;;;;0.30;0.30;;;18.60;92.70;;;;;;5012918;28;20185;-66
2023/09/23 15:53:36;;;;;;;0.30;0.30;;;18.60;92.60;;;;;;5012552;28;20175;-67
2023/09/23 15:56:04;;;;;;;0.30;0.20;;;18.70;92.40;;;;;;5012642;28;20822;-66
2023/09/23 15:58:30;;;;;;;0.30;0.30;;;18.70;92.50;;;;;;5012622;28;21053;-66
2023/09/23 16:00:55;;;;;;;0.30;0.30;;;18.70;92.60;;;;;;5013113;28;20498;-66
2023/09/23 16:03:21;;;;;;;0.30;0.27;;;18.80;92.80;;;;;;5013144;28;20250;-65
2023/09/23 16:05:47;;;;;;;0.30;0.30;;;18.80;92.50;;;;;;5012742;28;20194;-66
2023/09/23 16:08:12;;;;;;;0.30;0.20;;;18.80;92.60;;;;;;5012491;28;20205;-66
2023/09/23 16:10:38;;;;;;;0.30;0.20;;;18.80;92.60;;;;;;5012488;28;20426;-67
2023/09/23 16:13:04;;;;;;;0.30;0.30;;;18.70;92.30;;;;;;5012792;28;20294;-66
2023/09/23 16:15:31;;;;;;;0.30;0.30;;;18.60;92.30;;;;;;5012329;28;20238;-66
2023/09/23 16:17:57;;;;;;;0.30;0.20;;;18.50;92.50;;;;;;5012978;28;20469;-66
2023/09/23 16:20:22;;;;;;;0.30;0.30;;;18.40;92.20;;;;;;5012763;28;20899;-66
2023/09/23 16:22:48;;;;;;;0.30;0.30;;;18.10;92.40;;;;;;5015853;28;20618;-65
2023/09/23 16:25:14;;;;;;;0.30;0.30;;;18.00;92.50;;;;;;5015515;28;20203;-67
2023/09/23 16:27:41;;;;;;;0.30;0.30;;;17.80;93.00;;;;;;5015770;28;20217;-67
2023/09/23 16:30:08;;;;;;;0.30;0.20;;;17.70;93.40;;;;;;5015980;28;20182;-67
2023/09/23 16:32:34;;;;;;;0.30;0.20;;;17.50;94.00;;;;;;5007050;28;20425;-65
2023/09/23 16:35:00;;;;;;;0.30;0.30;;;17.40;94.40;;;;;;5015378;28;20463;-63
2023/09/23 16:37:25;;;;;;;0.30;0.30;;;17.30;94.60;;;;;;5015689;28;20496;-65
2023/09/23 16:39:51;;;;;;;0.30;0.30;;;17.20;94.90;;;;;;5015936;28;20406;-66
2023/09/23 16:42:17;;;;;;;0.30;0.30;;;17.10;95.20;;;;;;5015989;28;20163;-65
2023/09/23 16:44:43;;;;;;;0.30;0.30;;;17.00;95.30;;;;;;5015190;28;20277;-65
2023/09/23 16:47:09;;;;;;;0.30;0.30;;;16.90;96.00;;;;;;5014362;28;20686;-66
2023/09/23 16:49:34;;;;;;;0.30;0.30;;;16.80;96.10;;;;;;5015213;28;20450;-66